Time;durP1;ratioP1;P1;durP2;ratioP2;P2;SDS_P1;SDS_P2;PMS_P1;PMS_P2;Temp;Humidity;BMP_temperature;BMP_pressure;BME280_temperature;BME280_humidity;BME280_pressure;Samples;Min_cycle;Max_cycle;Signal;HPM_P1;HPM_P2
2023/12/27 00:01:18;;;;;;;22.05;9.07;;;;;;;7.97;100.00;101357.22;5090114;28;20083;-68
2023/12/27 00:03:43;;;;;;;23.48;10.18;;;;;;;7.97;100.00;101357.22;5086434;28;20031;-68
2023/12/27 00:06:09;;;;;;;26.42;10.60;;;;;;;7.96;100.00;101355.56;5086526;28;20051;-67
2023/12/27 00:08:35;;;;;;;25.52;11.00;;;;;;;7.99;100.00;101355.34;5085736;28;20135;-67
2023/12/27 00:11:02;;;;;;;29.98;11.27;;;;;;;8.03;100.00;101356.81;5088055;28;20024;-68
2023/12/27 00:13:27;;;;;;;24.00;10.18;;;;;;;8.09;100.00;101358.94;5086578;28;20043;-67
2023/12/27 00:15:53;;;;;;;21.67;10.93;;;;;;;8.07;100.00;101358.22;5087470;28;20489;-67
2023/12/27 00:18:18;;;;;;;16.45;9.38;;;;;;;8.06;100.00;101372.13;5088050;28;20056;-67
2023/12/27 00:20:46;;;;;;;22.58;8.75;;;;;;;7.99;100.00;101371.75;5088468;28;20476;-67
2023/12/27 00:23:12;;;;;;;19.80;9.18;;;;;;;7.97;100.00;101383.16;5085567;28;20043;-67
2023/12/27 00:25:37;;;;;;;15.93;7.95;;;;;;;7.94;100.00;101383.38;5088346;28;20024;-68
2023/12/27 00:28:03;;;;;;;22.38;9.80;;;;;;;7.93;100.00;101392.09;5088563;28;20038;-68
2023/12/27 00:30:28;;;;;;;16.45;9.20;;;;;;;7.93;100.00;101392.09;5087655;28;20174;-67
2023/12/27 00:32:54;;;;;;;18.55;9.05;;;;;;;7.93;100.00;101392.09;5087040;28;20040;-67
2023/12/27 00:35:19;;;;;;;15.65;9.52;;;;;;;7.92;100.00;101393.03;5085706;28;20187;-67
2023/12/27 00:37:45;;;;;;;18.23;8.15;;;;;;;7.89;100.00;101396.66;5088531;28;20547;-67
2023/12/27 00:40:11;;;;;;;15.90;9.38;;;;;;;7.87;100.00;101390.75;5088288;28;20081;-67
2023/12/27 00:42:36;;;;;;;21.65;9.50;;;;;;;7.87;100.00;101388.16;5087109;28;20118;-67
2023/12/27 00:45:02;;;;;;;21.30;9.38;;;;;;;7.85;100.00;101381.41;5088890;28;20032;-68
2023/12/27 00:47:27;;;;;;;20.63;10.63;;;;;;;7.81;100.00;101379.97;5085309;28;20488;-68
2023/12/27 00:49:53;;;;;;;20.70;9.95;;;;;;;7.79;100.00;101387.00;5086285;28;20062;-68
2023/12/27 00:52:18;;;;;;;17.65;9.25;;;;;;;7.75;100.00;101388.97;5087702;28;20519;-67
2023/12/27 00:54:43;;;;;;;20.88;10.88;;;;;;;7.77;100.00;101384.53;5085085;28;20472;-67
2023/12/27 00:57:09;;;;;;;21.42;10.80;;;;;;;7.78;100.00;101383.59;5084995;28;20114;-67
2023/12/27 00:59:34;;;;;;;19.95;9.90;;;;;;;7.75;100.00;101388.97;5087313;28;20036;-67
2023/12/27 01:02:00;;;;;;;23.30;10.32;;;;;;;7.75;100.00;101395.94;5088946;28;20565;-67
2023/12/27 01:04:25;;;;;;;23.33;10.18;;;;;;;7.75;100.00;101408.91;5084306;28;20047;-67
2023/12/27 01:06:51;;;;;;;22.17;9.02;;;;;;;7.76;100.00;101407.97;5088553;28;20028;-67
2023/12/27 01:09:16;;;;;;;20.90;10.35;;;;;;;7.77;100.00;101420.84;5087882;28;20119;-67
2023/12/27 01:11:42;;;;;;;18.95;10.40;;;;;;;7.76;100.00;101424.38;5086885;28;20027;-67
2023/12/27 01:14:07;;;;;;;22.15;10.15;;;;;;;7.74;100.00;101428.81;5085577;28;20114;-67
2023/12/27 01:16:33;;;;;;;19.80;10.07;;;;;;;7.71;100.00;101430.78;5085998;28;20043;-67
2023/12/27 01:18:58;;;;;;;23.83;10.40;;;;;;;7.70;100.00;101442.94;5087897;28;20074;-68
2023/12/27 01:21:24;;;;;;;18.52;10.10;;;;;;;7.70;100.00;101439.50;5083309;28;20036;-69
2023/12/27 01:23:49;;;;;;;19.83;10.05;;;;;;;7.68;100.00;101443.97;5086499;28;20036;-68
2023/12/27 01:26:14;;;;;;;23.70;10.25;;;;;;;7.66;100.00;101455.28;5089504;28;20492;-67
2023/12/27 01:28:40;;;;;;;17.10;9.85;;;;;;;7.63;100.00;101454.66;5086648;28;20107;-67
2023/12/27 01:31:05;;;;;;;14.20;8.77;;;;;;;7.60;100.00;101447.91;5090345;28;20458;-67
2023/12/27 01:33:31;;;;;;;18.13;9.52;;;;;;;7.60;100.00;101441.88;5089616;28;20050;-67
2023/12/27 01:35:56;;;;;;;25.00;10.38;;;;;;;7.59;100.00;101446.22;5086481;28;20034;-67
2023/12/27 01:38:21;;;;;;;26.10;9.80;;;;;;;7.59;100.00;101461.78;5085501;28;20059;-67
2023/12/27 01:40:51;;;;;;;16.88;9.38;;;;;;;7.60;100.00;101460.03;5091603;28;20070;-68
2023/12/27 01:43:16;;;;;;;18.70;8.70;;;;;;;7.59;100.00;101451.41;5091414;28;20063;-67
2023/12/27 01:45:43;;;;;;;17.27;9.57;;;;;;;7.59;100.00;101459.19;5090131;28;20461;-67
2023/12/27 01:48:09;;;;;;;13.93;8.48;;;;;;;7.57;100.00;101450.69;5089945;28;20115;-67
2023/12/27 01:50:35;;;;;;;17.00;8.20;;;;;;;7.54;100.00;101450.91;5088726;28;20043;-68
2023/12/27 01:53:00;;;;;;;20.73;9.27;;;;;;;7.52;100.00;101445.00;5089032;28;20036;-67
2023/12/27 01:55:26;;;;;;;16.15;9.13;;;;;;;7.52;100.00;101445.00;5091656;28;20036;-68
2023/12/27 01:57:51;;;;;;;13.40;9.30;;;;;;;7.52;100.00;101446.75;5090798;28;20476;-68
2023/12/27 02:00:17;;;;;;;19.88;10.05;;;;;;;7.51;100.00;101450.28;5094216;28;20124;-68
2023/12/27 02:02:42;;;;;;;14.65;7.82;;;;;;;7.51;100.00;101445.09;5089063;28;20044;-68
2023/12/27 02:05:08;;;;;;;18.75;9.45;;;;;;;7.50;100.00;101446.03;5090783;28;20036;-68
2023/12/27 02:07:36;;;;;;;17.05;8.18;;;;;;;7.50;100.00;101441.69;5090887;28;20530;-68
2023/12/27 02:10:02;;;;;;;16.42;9.00;;;;;;;7.50;100.00;101446.88;5093995;28;20028;-67
2023/12/27 02:12:29;;;;;;;18.02;9.23;;;;;;;7.51;100.00;101453.72;5090022;28;20040;-68
2023/12/27 02:14:55;;;;;;;15.77;8.38;;;;;;;7.52;100.00;101452.78;5091799;28;20500;-68
2023/12/27 02:17:22;;;;;;;21.73;10.65;;;;;;;7.55;100.00;101455.19;5091219;28;20039;-68
2023/12/27 02:19:48;;;;;;;17.67;9.70;;;;;;;7.65;100.00;101450.19;5089489;28;20032;-68
2023/12/27 02:22:19;;;;;;;21.63;10.00;;;;;;;7.71;100.00;101447.19;5089861;28;20533;-67
2023/12/27 02:24:48;;;;;;;17.02;8.25;;;;;;;7.76;100.00;101439.94;5088159;28;20085;-68
2023/12/27 02:27:13;;;;;;;21.48;9.23;;;;;;;7.78;100.00;101432.88;5091816;28;20043;-68
2023/12/27 02:29:38;;;;;;;18.00;9.55;;;;;;;7.80;100.00;101432.78;5088180;28;20048;-68
2023/12/27 02:32:04;;;;;;;21.45;10.07;;;;;;;7.80;100.00;101437.97;5091529;28;20023;-68
2023/12/27 02:34:30;;;;;;;21.98;9.45;;;;;;;7.77;100.00;101444.19;5090081;28;20028;-68
2023/12/27 02:36:55;;;;;;;20.88;9.68;;;;;;;7.74;100.00;101444.38;5091006;28;20065;-68
2023/12/27 02:39:21;;;;;;;21.52;10.52;;;;;;;7.73;100.00;101447.91;5088363;28;20034;-68
2023/12/27 02:41:47;;;;;;;18.38;9.63;;;;;;;7.72;100.00;101429.88;5091710;28;20024;-68
2023/12/27 02:44:12;;;;;;;18.70;9.25;;;;;;;7.71;100.00;101431.63;5087495;28;20434;-68
2023/12/27 02:46:37;;;;;;;22.30;10.38;;;;;;;7.72;100.00;101437.66;5091282;28;20048;-68
2023/12/27 02:49:03;;;;;;;17.70;9.07;;;;;;;7.71;100.00;101439.41;5092584;28;20031;-68
2023/12/27 02:51:28;;;;;;;16.60;8.95;;;;;;;7.70;100.00;101439.50;5091171;28;20053;-67
2023/12/27 02:53:54;;;;;;;14.15;8.38;;;;;;;7.69;100.00;101436.09;5090062;28;20031;-68
2023/12/27 02:56:21;;;;;;;18.30;9.65;;;;;;;7.68;100.00;101428.41;5086026;28;20044;-68
2023/12/27 02:58:46;;;;;;;16.10;8.52;;;;;;;7.66;100.00;101424.16;5088278;28;20031;-68
2023/12/27 03:01:12;;;;;;;19.20;10.35;;;;;;;7.66;100.00;101431.94;5089205;28;20036;-68
2023/12/27 03:03:37;;;;;;;20.98;9.85;;;;;;;7.65;100.00;101430.28;5088667;28;20026;-68
2023/12/27 03:06:03;;;;;;;20.73;10.18;;;;;;;7.65;100.00;101419.88;5088678;28;20036;-68
2023/12/27 03:08:28;;;;;;;21.83;9.88;;;;;;;7.65;100.00;101421.66;5088460;28;20473;-68
2023/12/27 03:10:55;;;;;;;23.70;11.32;;;;;;;7.65;100.00;101430.28;5084878;28;20032;-69
2023/12/27 03:13:21;;;;;;;25.67;12.50;;;;;;;7.67;100.00;101430.16;5090320;28;20042;-68
2023/12/27 03:15:46;;;;;;;23.55;12.00;;;;;;;7.74;100.00;101425.41;5090416;28;20115;-68
2023/12/27 03:18:12;;;;;;;25.70;11.57;;;;;;;7.77;100.00;101422.59;5092115;28;20115;-68
2023/12/27 03:20:37;;;;;;;23.55;12.10;;;;;;;7.74;100.00;101421.03;5089180;28;20024;-68
2023/12/27 03:23:03;;;;;;;28.48;11.45;;;;;;;7.75;100.00;101425.31;5089810;28;20043;-68
2023/12/27 03:25:29;;;;;;;19.95;11.13;;;;;;;7.76;100.00;101431.31;5086271;28;20059;-68
2023/12/27 03:27:54;;;;;;;27.25;12.70;;;;;;;7.76;100.00;101433.91;5090114;28;20112;-68
2023/12/27 03:30:20;;;;;;;22.33;12.02;;;;;;;7.76;100.00;101433.91;5088459;28;20450;-69
2023/12/27 03:32:45;;;;;;;18.52;10.30;;;;;;;7.74;100.00;101443.56;5090836;28;20047;-68
2023/12/27 03:35:11;;;;;;;23.67;11.25;;;;;;;7.74;100.00;101459.13;5091026;28;20036;-68
2023/12/27 03:37:36;;;;;;;20.85;10.45;;;;;;;7.72;100.00;101456.63;5089844;28;20032;-69
2023/12/27 03:40:02;;;;;;;19.67;11.77;;;;;;;7.73;100.00;101452.28;5085831;28;20064;-68
2023/12/27 03:42:27;;;;;;;28.83;11.68;;;;;;;7.71;100.00;101447.19;5089314;27;20181;-68
2023/12/27 03:44:53;;;;;;;23.60;11.40;;;;;;;7.71;100.00;101447.19;5087201;28;20498;-68
2023/12/27 03:47:19;;;;;;;20.38;11.20;;;;;;;7.71;100.00;101441.16;5092053;28;20028;-68
2023/12/27 03:49:45;;;;;;;21.67;11.50;;;;;;;7.71;100.00;101443.75;5086485;28;20034;-68
2023/12/27 03:52:11;;;;;;;20.52;9.70;;;;;;;7.69;100.00;101441.28;5087928;28;20043;-68
2023/12/27 03:54:37;;;;;;;19.42;9.90;;;;;;;7.66;100.00;101438.88;5088048;28;20133;-68
2023/12/27 03:57:03;;;;;;;18.77;9.75;;;;;;;7.62;100.00;101440.84;5090319;28;20568;-68
2023/12/27 03:59:29;;;;;;;19.48;10.95;;;;;;;7.60;100.00;101453.09;5086693;28;20127;-69
2023/12/27 04:01:54;;;;;;;16.65;9.50;;;;;;;7.59;100.00;101459.19;5087547;28;20435;-68
2023/12/27 04:04:19;;;;;;;19.80;9.15;;;;;;;7.58;100.00;101457.53;5087100;28;20042;-68
2023/12/27 04:06:45;;;;;;;15.25;8.23;;;;;;;7.63;100.00;101459.84;5090137;28;20032;-67
2023/12/27 04:09:10;;;;;;;18.35;8.45;;;;;;;7.66;100.00;101462.22;5091746;28;20066;-68
2023/12/27 04:11:45;;;;;;;20.50;8.50;;;;;;;7.70;100.00;101471.47;5088904;28;20024;-68
2023/12/27 04:14:14;;;;;;;20.42;8.32;;;;;;;7.73;100.00;101473.03;5088341;28;20027;-68
2023/12/27 04:16:40;;;;;;;20.83;8.88;;;;;;;7.76;100.00;101476.25;5087147;28;20040;-68
2023/12/27 04:19:05;;;;;;;20.90;10.20;;;;;;;7.79;100.00;101462.25;5088736;28;20597;-68
2023/12/27 04:21:31;;;;;;;18.38;8.65;;;;;;;7.83;100.00;101454.16;5087308;28;20040;-68
2023/12/27 04:23:56;;;;;;;27.33;8.50;;;;;;;7.84;100.00;101442.84;5087171;28;20042;-69
2023/12/27 04:26:22;;;;;;;23.73;9.20;;;;;;;7.85;100.00;101452.28;5087939;28;20027;-68
2023/12/27 04:28:47;;;;;;;15.38;8.18;;;;;;;7.87;100.00;101447.84;5086488;28;20024;-68
2023/12/27 04:31:13;;;;;;;18.48;7.70;;;;;;;7.89;100.00;101433.00;5084789;28;20092;-68
2023/12/27 04:33:38;;;;;;;15.02;7.80;;;;;;;7.91;100.00;101427.69;5086924;28;20032;-68
2023/12/27 04:36:05;;;;;;;21.63;8.15;;;;;;;7.86;100.00;101427.19;5091279;28;20552;-68
2023/12/27 04:38:30;;;;;;;27.23;8.52;;;;;;;7.83;100.00;101432.56;5085430;28;20401;-68
2023/12/27 04:40:56;;;;;;;14.45;7.60;;;;;;;7.78;100.00;101426.84;5088554;28;20035;-68
2023/12/27 04:43:21;;;;;;;20.20;7.82;;;;;;;7.82;100.00;101417.94;5086423;28;20032;-68
2023/12/27 04:45:48;;;;;;;14.23;7.70;;;;;;;7.77;100.00;101409.63;5075885;28;20028;-68
2023/12/27 04:48:14;;;;;;;13.65;6.68;;;;;;;7.68;100.00;101413.66;5087128;28;20028;-68
2023/12/27 04:50:39;;;;;;;17.90;6.90;;;;;;;7.60;100.00;101429.75;5086683;28;20032;-67
2023/12/27 04:53:05;;;;;;;15.25;7.03;;;;;;;7.56;100.00;101445.63;5090195;28;20076;-68
2023/12/27 04:55:30;;;;;;;18.42;7.55;;;;;;;7.54;100.00;101452.69;5087745;28;20166;-68
2023/12/27 04:57:56;;;;;;;17.35;6.68;;;;;;;7.53;100.00;101459.63;5088278;28;20115;-68
2023/12/27 05:00:23;;;;;;;15.35;7.75;;;;;;;7.54;100.00;101452.69;5086098;28;20117;-68
2023/12/27 05:02:48;;;;;;;20.83;8.10;;;;;;;7.54;100.00;101463.06;5089136;28;20031;-68
2023/12/27 05:05:14;;;;;;;19.98;9.73;;;;;;;7.53;100.00;101471.78;5092304;28;20036;-68
2023/12/27 05:07:39;;;;;;;16.42;8.43;;;;;;;7.52;100.00;101481.31;5093458;28;20527;-68
2023/12/27 05:10:05;;;;;;;19.88;8.15;;;;;;;7.51;100.00;101487.44;5092447;28;20040;-68
2023/12/27 05:12:30;;;;;;;18.45;7.32;;;;;;;7.52;100.00;101489.09;5089577;28;20373;-68
2023/12/27 05:14:56;;;;;;;12.73;6.65;;;;;;;7.52;100.00;101491.69;5090462;28;20036;-68
2023/12/27 05:17:22;;;;;;;15.77;6.82;;;;;;;7.52;100.00;101503.81;5090326;28;20051;-68
2023/12/27 05:19:47;;;;;;;20.27;8.30;;;;;;;7.54;100.00;101494.19;5090482;28;20040;-69
2023/12/27 05:22:13;;;;;;;17.13;6.20;;;;;;;7.56;100.00;101500.09;5092286;28;20084;-68
2023/12/27 05:24:41;;;;;;;15.95;7.13;;;;;;;7.56;100.00;101498.31;5091254;28;20036;-68
2023/12/27 05:27:07;;;;;;;14.32;6.57;;;;;;;7.53;100.00;101498.53;5091396;28;20506;-68
2023/12/27 05:29:34;;;;;;;14.80;6.38;;;;;;;7.53;100.00;101510.66;5087590;28;20051;-68
2023/12/27 05:32:00;;;;;;;19.58;7.68;;;;;;;7.52;100.00;101515.03;5090895;28;20369;-68
2023/12/27 05:34:25;;;;;;;15.27;5.95;;;;;;;7.52;100.00;101507.25;5091578;28;20036;-68
2023/12/27 05:36:51;;;;;;;13.70;6.53;;;;;;;7.70;100.00;101512.13;5091823;28;20496;-68
2023/12/27 05:39:16;;;;;;;15.40;6.65;;;;;;;7.85;100.00;101513.72;5090263;28;20044;-68
2023/12/27 05:41:42;;;;;;;19.40;7.72;;;;;;;7.94;100.00;101524.34;5088052;28;20044;-69
2023/12/27 05:44:07;;;;;;;14.70;7.55;;;;;;;7.94;100.00;101523.50;5090768;28;20524;-68
2023/12/27 05:46:35;;;;;;;18.33;7.55;;;;;;;7.90;100.00;101535.03;5090203;28;20111;-68
2023/12/27 05:49:00;;;;;;;15.85;8.02;;;;;;;7.83;100.00;101531.16;5094652;28;20035;-68
2023/12/27 05:51:26;;;;;;;17.77;7.40;;;;;;;7.79;100.00;101530.53;5090149;28;20020;-68
2023/12/27 05:53:51;;;;;;;21.02;7.75;;;;;;;7.81;100.00;101533.84;5094226;28;20499;-68
2023/12/27 05:56:17;;;;;;;15.32;7.55;;;;;;;7.83;100.00;101546.72;5092455;28;20044;-68
2023/12/27 05:58:42;;;;;;;15.07;7.03;;;;;;;7.82;100.00;101539.88;5086035;28;20112;-68
2023/12/27 06:01:09;;;;;;;17.65;7.20;;;;;;;7.84;100.00;101551.00;5089328;28;20071;-68
2023/12/27 06:03:34;;;;;;;21.48;8.55;;;;;;;7.88;100.00;101549.84;5089149;28;20027;-68
2023/12/27 06:06:02;;;;;;;17.65;7.70;;;;;;;7.86;100.00;101551.72;5095227;28;20155;-68
2023/12/27 06:08:27;;;;;;;12.38;7.32;;;;;;;7.74;100.00;101562.91;5090396;28;20519;-68
2023/12/27 06:10:53;;;;;;;21.00;7.53;;;;;;;7.60;100.00;101567.19;5091057;28;20051;-69
2023/12/27 06:13:19;;;;;;;14.10;7.05;;;;;;;7.47;100.00;101571.53;5092463;28;20034;-68
2023/12/27 06:15:44;;;;;;;19.30;7.07;;;;;;;7.39;100.00;101571.19;5090159;28;20039;-68
2023/12/27 06:18:09;;;;;;;16.95;6.95;;;;;;;7.37;100.00;101574.81;5094777;28;20032;-68
2023/12/27 06:20:35;;;;;;;21.40;7.97;;;;;;;7.54;100.00;101572.81;5088089;28;20032;-68
2023/12/27 06:23:00;;;;;;;16.35;7.57;;;;;;;7.54;100.00;101572.81;5090525;28;20050;-68
2023/12/27 06:25:26;;;;;;;20.88;7.43;;;;;;;7.58;100.00;101583.78;5087693;28;20393;-68
2023/12/27 06:27:51;;;;;;;16.33;7.97;;;;;;;7.55;100.00;101587.44;5088853;28;20062;-68
2023/12/27 06:30:17;;;;;;;19.10;7.63;;;;;;;7.63;100.00;101592.09;5089746;28;20048;-68
2023/12/27 06:32:42;;;;;;;18.17;6.70;;;;;;;7.76;100.00;101603.38;5089511;28;20066;-67
2023/12/27 06:35:08;;;;;;;16.50;7.30;;;;;;;7.86;100.00;101601.84;5090003;28;20095;-69
2023/12/27 06:37:33;;;;;;;14.50;7.18;;;;;;;7.87;100.00;101600.09;5089313;28;20043;-68
2023/12/27 06:39:58;;;;;;;12.80;6.80;;;;;;;7.91;100.00;101606.75;5087967;28;20476;-68
2023/12/27 06:42:24;;;;;;;18.95;7.80;;;;;;;7.90;100.00;101610.28;5089540;28;20036;-68
2023/12/27 06:44:50;;;;;;;13.25;6.32;;;;;;;7.94;100.00;101616.94;5089530;28;20102;-68
2023/12/27 06:47:15;;;;;;;12.15;6.30;;;;;;;8.04;100.00;101620.56;5089143;28;20392;-68
2023/12/27 06:49:40;;;;;;;12.55;6.20;;;;;;;8.10;100.00;101625.34;5087667;28;20377;-68
2023/12/27 06:52:06;;;;;;;12.70;6.25;;;;;;;8.09;100.00;101626.28;5089113;28;20016;-68
2023/12/27 06:54:31;;;;;;;10.90;6.53;;;;;;;8.01;100.00;101623.38;5087411;28;20595;-68
2023/12/27 06:56:59;;;;;;;13.80;4.97;;;;;;;7.90;100.00;101618.88;5090363;28;20034;-68
2023/12/27 06:59:25;;;;;;;13.70;6.22;;;;;;;7.85;100.00;101609.72;5089008;28;20044;-69
2023/12/27 07:01:50;;;;;;;15.60;6.43;;;;;;;7.81;100.00;101605.66;5088712;28;20031;-68
2023/12/27 07:04:16;;;;;;;16.88;7.38;;;;;;;7.80;100.00;101606.59;5089396;28;20031;-69
2023/12/27 07:06:41;;;;;;;15.80;7.97;;;;;;;7.81;100.00;101592.69;5089998;28;20089;-68
2023/12/27 07:09:09;;;;;;;14.77;6.00;;;;;;;7.85;100.00;101591.56;5088878;28;20031;-69
2023/12/27 07:11:34;;;;;;;15.05;6.93;;;;;;;7.93;100.00;101589.31;5086056;28;20024;-68
2023/12/27 07:14:00;;;;;;;16.90;6.55;;;;;;;8.04;100.00;101601.56;5089332;28;20020;-68
2023/12/27 07:16:25;;;;;;;19.48;6.63;;;;;;;8.03;100.00;101611.16;5089199;28;20031;-67
2023/12/27 07:18:51;;;;;;;18.10;7.32;;;;;;;8.03;100.00;101631.06;5088987;28;20531;-68
2023/12/27 07:21:16;;;;;;;20.73;6.95;;;;;;;7.99;100.00;101627.84;5087914;28;20039;-67
2023/12/27 07:23:42;;;;;;;17.25;7.47;;;;;;;7.97;100.00;101627.94;5086774;28;20043;-67
2023/12/27 07:26:13;;;;;;;15.43;6.78;;;;;;;7.97;100.00;101637.50;5084866;28;20145;-67
2023/12/27 07:28:39;;;;;;;13.18;5.55;;;;;;;7.99;100.00;101656.41;5085878;28;20476;-67
2023/12/27 07:31:06;;;;;;;17.02;6.18;;;;;;;8.06;100.00;101662.81;5086483;28;20257;-67
2023/12/27 07:33:31;;;;;;;11.50;6.65;;;;;;;8.08;100.00;101660.13;5084259;28;20024;-67
2023/12/27 07:35:57;;;;;;;13.57;7.00;;;;;;;8.08;100.00;101655.78;5087345;28;20028;-67
2023/12/27 07:38:24;;;;;;;12.45;6.65;;;;;;;8.08;100.00;101666.16;5085748;28;20118;-67
2023/12/27 07:40:50;;;;;;;16.13;6.78;;;;;;;8.10;100.00;101668.66;5086829;28;20032;-67
2023/12/27 07:43:15;;;;;;;14.98;7.60;;;;;;;8.11;100.00;101680.69;5089462;28;20464;-67
2023/12/27 07:45:42;;;;;;;15.05;6.88;;;;;;;8.12;100.00;101677.19;5090372;28;20023;-67
2023/12/27 07:48:07;;;;;;;17.10;6.07;;;;;;;8.14;100.00;101677.91;5090001;28;20035;-67
2023/12/27 07:50:33;;;;;;;17.58;6.68;;;;;;;8.21;100.00;101682.59;5083935;28;20366;-67
2023/12/27 07:52:58;;;;;;;16.55;5.60;;;;;;;8.28;100.00;101691.66;5089152;28;20031;-67
2023/12/27 07:55:23;;;;;;;14.02;5.43;;;;;;;8.34;100.00;101703.47;5085145;28;20038;-67
2023/12/27 07:57:49;;;;;;;10.00;5.15;;;;;;;8.40;100.00;101704.81;5089529;27;20123;-67
2023/12/27 08:00:15;;;;;;;11.18;5.68;;;;;;;8.41;100.00;101714.28;5086861;28;20217;-67
2023/12/27 08:02:41;;;;;;;12.70;5.93;;;;;;;8.37;100.00;101712.81;5087434;28;20040;-67
2023/12/27 08:05:07;;;;;;;11.80;5.70;;;;;;;8.39;100.00;101716.16;5085882;28;21198;-67
2023/12/27 08:07:33;;;;;;;15.77;5.55;;;;;;;8.48;100.00;101720.75;5084592;28;20028;-67
2023/12/27 08:09:58;;;;;;;15.15;5.43;;;;;;;8.56;100.00;101713.25;5090863;28;20072;-67
2023/12/27 08:12:24;;;;;;;7.55;4.38;;;;;;;8.58;100.00;101709.63;5087356;28;20097;-67
2023/12/27 08:14:49;;;;;;;8.10;4.40;;;;;;;8.64;100.00;101714.41;5087395;28;20039;-67
2023/12/27 08:17:15;;;;;;;6.75;3.75;;;;;;;8.73;100.00;101720.75;5088483;28;20457;-67
2023/12/27 08:19:41;;;;;;;15.32;4.63;;;;;;;8.81;100.00;101734.09;5086519;28;20090;-67
2023/12/27 08:22:06;;;;;;;12.38;4.40;;;;;;;8.82;99.81;101734.91;5088813;28;20504;-67
2023/12/27 08:24:32;;;;;;;12.02;4.13;;;;;;;8.83;100.00;101736.59;5086786;28;20063;-67
2023/12/27 08:26:58;;;;;;;7.70;3.78;;;;;;;8.79;99.22;101738.56;5088172;28;20118;-67
2023/12/27 08:29:24;;;;;;;9.07;4.10;;;;;;;8.84;99.63;101739.09;5087829;28;20106;-67
2023/12/27 08:31:50;;;;;;;10.00;5.03;;;;;;;8.86;99.63;101734.63;5087090;28;20028;-67
2023/12/27 08:34:16;;;;;;;8.88;4.00;;;;;;;8.92;98.42;101720.38;5085709;28;20050;-67
2023/12/27 08:36:45;;;;;;;10.82;4.18;;;;;;;8.98;98.29;101730.34;5088049;28;20039;-67
2023/12/27 08:39:11;;;;;;;12.88;3.78;;;;;;;9.07;99.40;101744.47;5090297;28;20157;-67
2023/12/27 08:41:36;;;;;;;9.10;4.35;;;;;;;9.13;100.00;101749.28;5091024;28;20120;-67
2023/12/27 08:44:02;;;;;;;10.45;4.50;;;;;;;9.17;98.44;101746.38;5091681;28;20029;-67
2023/12/27 08:46:28;;;;;;;9.07;3.33;;;;;;;9.17;96.92;101756.75;5091430;28;20184;-67
2023/12/27 08:48:54;;;;;;;11.38;4.43;;;;;;;9.17;96.50;101753.34;5092124;28;20557;-67
2023/12/27 08:51:19;;;;;;;12.32;4.95;;;;;;;9.19;96.56;101748.84;5090876;28;20032;-67
2023/12/27 08:53:45;;;;;;;11.77;4.10;;;;;;;9.22;95.39;101753.84;5092257;28;20028;-67
2023/12/27 08:56:10;;;;;;;9.55;4.30;;;;;;;9.26;96.11;101765.72;5090861;28;20032;-67
2023/12/27 08:58:36;;;;;;;9.50;3.83;;;;;;;9.29;94.91;101770.72;5091240;28;20024;-67
2023/12/27 09:01:02;;;;;;;13.50;4.60;;;;;;;9.34;95.40;101773.00;5092477;28;20100;-66
2023/12/27 09:03:28;;;;;;;12.15;3.95;;;;;;;9.34;95.36;101771.22;5091836;28;20042;-67
2023/12/27 09:05:53;;;;;;;8.02;4.68;;;;;;;9.35;94.67;101770.28;5092171;28;20031;-67
2023/12/27 09:08:18;;;;;;;10.15;3.78;;;;;;;9.33;94.53;101772.16;5089057;28;20032;-67
2023/12/27 09:10:44;;;;;;;10.80;3.47;;;;;;;9.32;94.45;101775.69;5090166;28;20028;-67
2023/12/27 09:13:10;;;;;;;8.57;3.40;;;;;;;9.34;94.34;101768.63;5091629;28;20036;-67
2023/12/27 09:15:35;;;;;;;6.40;3.00;;;;;;;9.35;93.25;101765.09;5091429;28;20113;-68
2023/12/27 09:18:01;;;;;;;7.10;3.67;;;;;;;9.39;93.54;101773.53;5092111;28;20035;-67
2023/12/27 09:20:26;;;;;;;6.28;3.17;;;;;;;9.40;92.94;101770.81;5091322;28;20024;-67
2023/12/27 09:22:52;;;;;;;7.63;4.07;;;;;;;9.43;93.61;101780.19;5092036;28;20036;-67
2023/12/27 09:25:17;;;;;;;9.40;3.92;;;;;;;9.46;92.80;101788.56;5092388;28;20501;-67
2023/12/27 09:27:44;;;;;;;8.88;3.97;;;;;;;9.50;92.06;101792.63;5090191;28;20035;-67
2023/12/27 09:30:10;;;;;;;10.05;4.03;;;;;;;9.50;92.12;101795.22;5091118;28;20059;-67
2023/12/27 09:32:37;;;;;;;12.88;4.07;;;;;;;9.54;91.59;101790.66;5090717;28;20509;-67
2023/12/27 09:35:02;;;;;;;7.20;2.80;;;;;;;9.57;92.71;101791.28;5092208;28;20028;-67
2023/12/27 09:37:29;;;;;;;7.32;3.97;;;;;;;9.57;91.61;101786.06;5091013;28;20059;-67
2023/12/27 09:39:54;;;;;;;11.10;3.38;;;;;;;9.60;92.10;101788.47;5088355;28;20032;-67
2023/12/27 09:42:20;;;;;;;8.15;3.47;;;;;;;9.59;91.20;101780.75;5087644;28;20028;-67
2023/12/27 09:44:48;;;;;;;9.20;3.65;;;;;;;9.61;91.26;101787.53;5088972;28;20105;-67
2023/12/27 09:47:16;;;;;;;7.20;3.40;;;;;;;9.64;92.54;101782.13;5089250;28;20077;-67
2023/12/27 09:49:41;;;;;;;11.88;4.03;;;;;;;9.64;91.90;101782.13;5085017;28;20024;-67
2023/12/27 09:52:08;;;;;;;8.30;3.83;;;;;;;9.62;90.87;101778.78;5090381;28;20400;-67
2023/12/27 09:54:33;;;;;;;7.93;3.55;;;;;;;9.61;91.23;101769.31;5090242;28;20064;-67
2023/12/27 09:57:00;;;;;;;10.40;3.03;;;;;;;9.65;91.20;101767.34;5092031;28;20120;-67
2023/12/27 09:59:28;;;;;;;12.90;4.18;;;;;;;9.68;91.02;101771.50;5089953;28;20043;-67
2023/12/27 10:02:02;;;;;;;9.57;3.63;;;;;;;9.74;90.78;101776.28;5087153;28;20032;-67
2023/12/27 10:05:06;;;;;;;9.18;3.97;;;;;;;9.77;89.83;101776.88;5088110;28;20028;-67
2023/12/27 10:07:33;;;;;;;6.70;3.30;;;;;;;9.77;91.02;101774.28;5089694;28;20111;-67
2023/12/27 10:10:01;;;;;;;7.90;3.30;;;;;;;9.74;89.78;101769.28;5090621;28;20035;-67
2023/12/27 10:12:27;;;;;;;10.70;3.38;;;;;;;9.76;90.31;101757.00;5088230;28;20089;-67
2023/12/27 10:14:53;;;;;;;6.97;3.15;;;;;;;9.77;90.02;101761.28;5090863;28;20028;-67
2023/12/27 10:17:19;;;;;;;7.15;3.30;;;;;;;9.78;90.52;101760.34;5090952;28;20044;-67
2023/12/27 10:19:45;;;;;;;7.47;3.13;;;;;;;9.82;91.18;101771.38;5090578;28;20748;-67
2023/12/27 10:22:14;;;;;;;8.73;3.38;;;;;;;9.84;91.07;101772.09;5090648;28;20052;-67
2023/12/27 10:24:40;;;;;;;10.75;3.65;;;;;;;9.84;90.90;101764.28;5089492;28;20062;-67
2023/12/27 10:27:07;;;;;;;9.15;3.40;;;;;;;9.84;91.37;101764.28;5091019;28;20059;-67
2023/12/27 10:29:33;;;;;;;12.05;4.22;;;;;;;9.78;90.11;101768.16;5087715;28;20032;-67
2023/12/27 10:32:00;;;;;;;8.18;3.90;;;;;;;9.83;91.21;101760.00;5088918;28;20024;-67
2023/12/27 10:34:29;;;;;;;10.15;3.85;;;;;;;9.82;90.27;101760.94;5088587;28;20028;-67
2023/12/27 10:36:56;;;;;;;10.57;4.28;;;;;;;9.84;91.14;101752.09;5083497;28;20043;-67
2023/12/27 10:39:22;;;;;;;11.88;4.15;;;;;;;9.83;90.81;101755.63;5089081;28;20040;-67
2023/12/27 10:41:47;;;;;;;13.57;4.22;;;;;;;9.87;90.15;101761.47;5087387;28;20413;-67
2023/12/27 10:44:17;;;;;;;9.48;4.18;;;;;;;9.92;89.55;101752.34;5088454;28;20024;-67
2023/12/27 10:46:43;;;;;;;5.35;3.38;;;;;;;9.93;89.83;101753.19;5088542;28;20073;-67
2023/12/27 10:49:12;;;;;;;10.32;3.63;;;;;;;9.92;89.44;101754.16;5088422;28;20047;-67
2023/12/27 10:51:40;;;;;;;7.68;3.70;;;;;;;9.92;91.39;101754.97;5094933;28;20220;-67
2023/12/27 10:54:05;;;;;;;9.52;4.05;;;;;;;9.92;91.21;101746.34;5089195;28;20036;-67
2023/12/27 10:56:41;;;;;;;6.53;2.70;;;;;;;9.91;91.54;101752.50;5087945;28;20035;-67
2023/12/27 10:59:09;;;;;;;7.38;3.67;;;;;;;9.90;91.67;101745.63;5089083;28;20040;-67
2023/12/27 11:01:38;;;;;;;5.15;3.25;;;;;;;9.93;91.87;101738.41;5087452;28;20064;-67
2023/12/27 11:04:11;;;;;;;9.40;3.30;;;;;;;9.97;92.75;101732.03;5082938;28;20059;-67
2023/12/27 11:06:37;;;;;;;6.47;3.25;;;;;;;9.97;93.48;101731.19;5090010;28;20085;-67
2023/12/27 11:09:09;;;;;;;11.18;4.05;;;;;;;9.98;94.37;101738.91;5085139;28;20020;-67
2023/12/27 11:11:38;;;;;;;22.77;11.05;;;;;;;9.96;95.76;101732.16;5085794;28;20029;-68
2023/12/27 11:14:06;;;;;;;16.95;9.63;;;;;;;9.95;97.41;101739.13;5083579;28;20038;-67